Maroochydore, Queensland

2:30 AM AEST on October 25, 2014 (GMT +1000)
Coolum - Pt Arkwright | Change Station
CLOSE
Current Station
Personal Weather Station
Location: Coolum Beach, QLD
Elevation: 207 ft
Nearby Weather Stations

Elev 207 ft 26.54 °S, 153.10 °E | Updated 1 second ago

Clear
Clear
66.0 °F
Feels Like 66.0 °F
N
0.0
Wind Variable Wind from North
Gusts 0.0 mph

Today
High -- | Low -- °F
--% Chance of Precip.
Yesterday
High -- | Low -- °F
Precip. -- in
5:03 AM 6:00 PM
New Moon, 1% visible
Pressure 30.09 in
Visibility -9999.0 miles
Clouds
Dew Point 57 °F
Humidity 73%
Rainfall 0.00 in
Snow Depth Not available.
UV Not available.
Pollen Not available.
Air Quality Not available.
Flu Activity Not available.
METAR YBBN 241600Z 29005KT CAVOK 17/14 Q1019 NOSIG

More Conditions Fewer Conditions

Pressure 30.09 in
Visibility -9999.0 miles
Clouds
Dew Point 57 °F
Humidity 73%
Rainfall 0.00 in
Snow Depth Not available.
UV Not available.
Pollen Not available.
Air Quality Not available.
Flu Activity Not available.
METAR YBBN 241600Z 29005KT CAVOK 17/14 Q1019 NOSIG

More Conditions Fewer Conditions

10-Day Weather Forecast

Almanac

Astronomy

Oct. 25, 2014 Rise Set
Actual Time 5:03 AM AEST 6:00 PM AEST
Civil Twilight 4:39 AM AEST 6:24 PM AEST
Nautical Twilight 4:11 AM AEST 6:52 PM AEST
Astronomical Twilight 3:42 AM AEST 7:21 PM AEST
Moon 5:49 AM AEST (10/25) 7:13 PM AEST (10/25)
Length of Visible Light 13h 44m
Length of Day
12h 56m
Tomorrow will be 1m 28s longer.
New Moon, 1% of the Moon is Illuminated
Oct 24
New Moon
Oct 30
First Quarter
Nov 6
Full
Nov 14
Last Quarter
Nov 22
New

Yesterday's Extremes

Country Highs Country Lows

Community

WunderPhotos

Upload Photos

1,764,603 photos uploaded!

WunderBlogs® & News

By Dr. Jeff Masters
Director of Meteorology, Weather Underground
By Kari Strenfel
Meteorologist, Weather Underground
By Christopher C. Burt
Weather Historian, Weather Underground
October 24, 2014
October 24, 2014
October 24, 2014

Nearby

Snow Depth

Not available.

Earthquake Activity

City Distance Mag. Time & Date
No recent earthquake activity has been reported nearby.
Minimum magnitude displayed is 2.5.

Coastal Water Temperatures

Place Temperature
No Stations Reporting

Nearby Weather Stations